This is the latest recevied weather packets stored in our database for station/object DH1NAI-6. If no packets are shown the sender has not sent any weather packets the latest 10 day(s).
| Time | Temp. | Humidity | Pressure | Rain* | Wind** | Luminosity | Snow |
|---|---|---|---|---|---|---|---|
| 1777759282 | 6.67° C | 81% | 1015 hPa | 0 mm | - | 0 W/m² | - |
| 1777758659 | 6.67° C | 82% | 1015 hPa | 0 mm | - | 0 W/m² | - |
| 1777758035 | 6.67° C | 81% | 1015.3 hPa | 0 mm | - | 0 W/m² | - |
| 1777757426 | 6.67° C | 82% | 1015.1 hPa | 0 mm | - | 0 W/m² | - |
| 1777756819 | 7.22° C | 81% | 1015.3 hPa | 0 mm | - | 0 W/m² | - |
| 1777756211 | 7.22° C | 81% | 1015.3 hPa | 0 mm | - | 0 W/m² | - |
| 1777755603 | 7.22° C | 81% | 1015.2 hPa | 0 mm | - | 0 W/m² | - |
| 1777754995 | 7.22° C | 83% | 1015.4 hPa | 0 mm | - | 0 W/m² | - |
| 1777754387 | 7.22° C | 82% | 1015.4 hPa | 0 mm | - | 0 W/m² | - |
| 1777753773 | 7.22° C | 82% | 1015.4 hPa | 0 mm | - | 0 W/m² | - |
| 1777753171 | 7.78° C | 82% | 1015.4 hPa | 0 mm | - | 0 W/m² | - |
| 1777752562 | 7.78° C | 82% | 1015.7 hPa | 0 mm | - | 0 W/m² | - |
| 1777751939 | 7.78° C | 83% | 1015.6 hPa | 0 mm | - | 0 W/m² | - |
| 1777751315 | 7.78° C | 83% | 1015.8 hPa | 0 mm | - | 0 W/m² | - |
| 1777750706 | 7.78° C | 84% | 1015.8 hPa | 0 mm | - | 0 W/m² | - |
| 1777750099 | 8.33° C | 82% | 1015.7 hPa | 0 mm | - | 0 W/m² | - |
| 1777749490 | 8.89° C | 81% | 1015.7 hPa | 0 mm | - | 0 W/m² | - |
| 1777748883 | 8.89° C | 82% | 1015.8 hPa | 0 mm | - | 0 W/m² | - |
| 1777748275 | 10° C | 81% | 1015.6 hPa | 0 mm | - | 0 W/m² | - |
| 1777747667 | 11.11° C | 79% | 1015.7 hPa | 0 mm | - | 0 W/m² | - |
| 1777747053 | 11.67° C | 78% | 1015.9 hPa | 0 mm | - | 0 W/m² | - |
| 1777746451 | 12.78° C | 75% | 1015.7 hPa | 0 mm | - | 1 W/m² | - |
| 1777745843 | 13.89° C | 72% | 1015.4 hPa | 0 mm | - | 4 W/m² | - |
| 1777745219 | 15.56° C | 67% | 1015.4 hPa | 0 mm | - | 6 W/m² | - |
| 1777744595 | 16.67° C | 65% | 1015.6 hPa | 0 mm | - | 8 W/m² | - |
* Rain latest hour (hover to see other rain measurements)
** Current wind speed in m/s (hover to see current wind gust speed)